createdAt,value
2023-03-21T00:01:47.536Z,101701.14
2023-03-21T00:04:17.137Z,101696.28
2023-03-21T00:06:46.749Z,101693.84
2023-03-21T00:09:16.071Z,101691.22
2023-03-21T00:11:46.448Z,101688.66
2023-03-21T00:14:18.175Z,101683.51
2023-03-21T00:16:52.443Z,101683.91
2023-03-21T00:19:23.938Z,101681.93
2023-03-21T00:22:07.104Z,101675.98
2023-03-21T00:24:26.954Z,101674.47
2023-03-21T00:27:21.968Z,101677.48
2023-03-21T00:29:31.286Z,101675.13
2023-03-21T00:32:00.744Z,101679.20
2023-03-21T00:34:42.738Z,101667.38
2023-03-21T00:37:01.809Z,101674.51
2023-03-21T00:39:32.205Z,101666.83
2023-03-21T00:42:01.793Z,101670.77
2023-03-21T00:44:33.042Z,101659.14
2023-03-21T00:47:07.581Z,101660.92
2023-03-21T00:49:37.702Z,101650.16
2023-03-21T00:52:27.333Z,101650.87
2023-03-21T00:54:42.584Z,101646.84
2023-03-21T00:57:11.838Z,101645.72
2023-03-21T00:59:41.053Z,101642.27
2023-03-21T01:02:13.500Z,101642.53
2023-03-21T01:04:43.127Z,101638.23
2023-03-21T01:07:12.377Z,101628.55
2023-03-21T01:09:41.760Z,101636.23
2023-03-21T01:12:11.094Z,101630.16
2023-03-21T01:14:40.484Z,101629.41
2023-03-21T01:17:10.098Z,101629.41
2023-03-21T01:19:51.242Z,101626.78
2023-03-21T01:22:10.618Z,101620.67
2023-03-21T01:24:50.217Z,101619.36
2023-03-21T01:27:11.175Z,101616.37
2023-03-21T01:29:40.693Z,101615.26
2023-03-21T01:32:09.929Z,101608.69
2023-03-21T01:34:39.494Z,101605.02
2023-03-21T01:37:08.908Z,101600.81
2023-03-21T01:39:40.029Z,101596.93
2023-03-21T01:42:12.423Z,101595.72
2023-03-21T01:45:00.476Z,101592.73
2023-03-21T01:47:31.454Z,101586.73
2023-03-21T01:50:20.614Z,101581.87
2023-03-21T01:52:51.946Z,101589.16
2023-03-21T01:55:23.111Z,101581.48
2023-03-21T01:58:09.401Z,101585.16
2023-03-21T02:00:55.132Z,101580.75
2023-03-21T02:03:35.650Z,101581.67
2023-03-21T02:06:10.625Z,101577.73
2023-03-21T02:08:41.481Z,101568.39
2023-03-21T02:11:12.822Z,101574.75
2023-03-21T02:13:43.865Z,101567.44
2023-03-21T02:16:36.712Z,101566.33
2023-03-21T02:19:20.128Z,101565.97
2023-03-21T02:21:54.408Z,101563.34
2023-03-21T02:24:28.296Z,101565.05
2023-03-21T02:27:19.562Z,101561.66
2023-03-21T02:30:17.425Z,101553.03
2023-03-21T02:33:22.043Z,101551.53
2023-03-21T02:36:14.900Z,101550.72
2023-03-21T02:38:51.166Z,101547.08
2023-03-21T02:41:40.115Z,101537.30
2023-03-21T02:44:15.607Z,101539.92
2023-03-21T02:47:15.328Z,101532.59
2023-03-21T02:50:15.819Z,101522.94
2023-03-21T02:52:47.459Z,101526.23
2023-03-21T02:55:22.845Z,101519.88
2023-03-21T02:57:56.415Z,101524.76
2023-03-21T03:00:29.865Z,101518.20
2023-03-21T03:03:09.632Z,101520.63
2023-03-21T03:05:34.904Z,101517.80
2023-03-21T03:08:38.379Z,101521.55
2023-03-21T03:11:19.662Z,101525.69
2023-03-21T03:13:54.950Z,101523.14
2023-03-21T03:16:42.622Z,101521.28
2023-03-21T03:19:15.072Z,101521.19
2023-03-21T03:21:59.541Z,101519.56
2023-03-21T03:24:41.435Z,101524.66
2023-03-21T03:27:19.789Z,101516.88
2023-03-21T03:29:50.400Z,101514.16
2023-03-21T03:32:25.585Z,101516.29
2023-03-21T03:34:57.114Z,101515.57
2023-03-21T03:37:34.190Z,101511.43
2023-03-21T03:40:21.728Z,101512.84
2023-03-21T03:42:54.787Z,101513.00
2023-03-21T03:45:28.958Z,101507.49
2023-03-21T03:47:59.297Z,101505.38
2023-03-21T03:50:39.256Z,101503.91
2023-03-21T03:53:19.491Z,101495.78
2023-03-21T03:55:51.302Z,101486.59
2023-03-21T03:58:27.397Z,101485.33
2023-03-21T04:00:59.378Z,101479.33
2023-03-21T04:03:32.422Z,101480.44
2023-03-21T04:06:00.250Z,101481.08
2023-03-21T04:08:30.174Z,101478.20
2023-03-21T04:10:59.683Z,101476.78
2023-03-21T04:13:29.556Z,101483.25
2023-03-21T04:16:11.857Z,101477.14
2023-03-21T04:18:42.049Z,101475.47
2023-03-21T04:21:13.018Z,101472.53
2023-03-21T04:23:43.177Z,101473.20
2023-03-21T04:26:12.941Z,101467.28
2023-03-21T04:28:46.823Z,101460.93
2023-03-21T04:31:27.307Z,101461.28
2023-03-21T04:34:08.083Z,101469.81
2023-03-21T04:36:47.945Z,101462.23
2023-03-21T04:39:18.521Z,101461.47
2023-03-21T04:41:50.050Z,101457.03
2023-03-21T04:44:20.950Z,101450.86
2023-03-21T04:46:50.840Z,101458.84
2023-03-21T04:49:21.311Z,101448.70
2023-03-21T04:51:51.140Z,101450.47
2023-03-21T04:54:21.183Z,101449.27
2023-03-21T04:56:52.193Z,101440.81
2023-03-21T04:59:21.850Z,101432.30
2023-03-21T05:01:52.646Z,101432.58
2023-03-21T05:04:22.516Z,101434.10
2023-03-21T05:06:51.844Z,101430.52
2023-03-21T05:09:22.310Z,101436.13
2023-03-21T05:11:52.294Z,101431.27
2023-03-21T05:14:25.320Z,101433.89
2023-03-21T05:16:56.534Z,101431.83
2023-03-21T05:19:32.908Z,101427.00
2023-03-21T05:22:05.495Z,101427.36
2023-03-21T05:24:34.793Z,101427.15
2023-03-21T05:27:04.107Z,101425.48
2023-03-21T05:29:35.111Z,101428.36
2023-03-21T05:32:06.453Z,101427.05
2023-03-21T05:34:35.698Z,101430.37
2023-03-21T05:37:04.969Z,101426.61
2023-03-21T05:39:38.676Z,101429.42
2023-03-21T05:42:12.582Z,101426.94
2023-03-21T05:44:42.654Z,101430.31
2023-03-21T05:47:13.590Z,101430.46
2023-03-21T05:49:45.684Z,101433.47
2023-03-21T05:52:15.369Z,101430.56
2023-03-21T05:54:46.832Z,101430.00
2023-03-21T05:57:18.042Z,101430.25
2023-03-21T05:59:52.203Z,101428.73
2023-03-21T06:02:22.057Z,101428.34
2023-03-21T06:04:51.870Z,101425.86
2023-03-21T06:07:23.275Z,101431.15
2023-03-21T06:09:52.993Z,101431.22
2023-03-21T06:12:23.160Z,101430.47
2023-03-21T06:14:56.986Z,101429.91
2023-03-21T06:17:28.155Z,101432.31
2023-03-21T06:20:01.872Z,101429.58
2023-03-21T06:22:34.021Z,101432.84
2023-03-21T06:25:04.157Z,101432.10
2023-03-21T06:27:33.501Z,101433.31
2023-03-21T06:30:02.970Z,101428.09
2023-03-21T06:32:34.291Z,101439.98
2023-03-21T06:35:05.651Z,101441.40
2023-03-21T06:37:35.292Z,101443.28
2023-03-21T06:40:06.142Z,101442.72
2023-03-21T06:42:36.066Z,101449.64
2023-03-21T06:45:07.751Z,101447.12
2023-03-21T06:47:36.974Z,101448.40
2023-03-21T06:50:09.372Z,101455.01
2023-03-21T06:52:40.337Z,101449.61
2023-03-21T06:55:10.389Z,101455.85
2023-03-21T06:57:39.615Z,101448.08
2023-03-21T07:00:11.187Z,101457.23
2023-03-21T07:02:42.398Z,101455.48
2023-03-21T07:05:13.605Z,101450.16
2023-03-21T07:07:44.347Z,101443.91
2023-03-21T07:10:13.670Z,101440.70
2023-03-21T07:12:44.840Z,101445.59
2023-03-21T07:15:15.836Z,101440.16
2023-03-21T07:17:46.021Z,101439.16
2023-03-21T07:20:15.255Z,101440.36
2023-03-21T07:22:44.817Z,101436.91
2023-03-21T07:25:14.323Z,101432.48
2023-03-21T07:27:44.566Z,101430.45
2023-03-21T07:30:14.352Z,101430.45
2023-03-21T07:32:45.301Z,101416.48
2023-03-21T07:35:17.067Z,101418.00
2023-03-21T07:37:46.579Z,101419.56
2023-03-21T07:40:17.981Z,101416.91
2023-03-21T07:42:50.908Z,101417.17
2023-03-21T07:45:23.708Z,101411.39
2023-03-21T07:47:53.397Z,101411.60
2023-03-21T07:50:22.985Z,101412.50
2023-03-21T07:52:52.543Z,101411.62
2023-03-21T07:55:22.293Z,101409.63
2023-03-21T07:57:51.860Z,101406.94
2023-03-21T08:00:25.131Z,101403.95
2023-03-21T08:02:58.676Z,101406.47
2023-03-21T08:05:30.099Z,101411.52
2023-03-21T08:07:59.296Z,101408.20
2023-03-21T08:10:29.574Z,101406.50
2023-03-21T08:12:59.186Z,101401.00
2023-03-21T08:15:28.732Z,101403.09
2023-03-21T08:18:00.317Z,101400.61
2023-03-21T08:20:29.537Z,101394.03
2023-03-21T08:22:58.792Z,101385.82
2023-03-21T08:25:28.010Z,101384.52
2023-03-21T08:27:57.903Z,101382.30
2023-03-21T08:30:29.063Z,101376.52
2023-03-21T08:33:01.556Z,101374.28
2023-03-21T08:35:31.710Z,101371.86
2023-03-21T08:38:02.767Z,101367.70
2023-03-21T08:40:32.113Z,101370.47
2023-03-21T08:43:01.905Z,101362.02
2023-03-21T08:45:31.447Z,101363.00
2023-03-21T08:48:02.448Z,101357.05
2023-03-21T08:50:32.315Z,101361.41
2023-03-21T08:53:01.552Z,101366.05
2023-03-21T08:55:32.469Z,101361.41
2023-03-21T08:58:03.972Z,101363.42
2023-03-21T09:00:33.348Z,101373.34
2023-03-21T09:03:04.226Z,101362.22
2023-03-21T09:05:33.678Z,101353.52
2023-03-21T09:08:05.541Z,101355.47
2023-03-21T09:10:34.968Z,101352.37
2023-03-21T09:13:04.332Z,101351.69
2023-03-21T09:15:35.452Z,101342.72
2023-03-21T09:18:06.477Z,101337.23
2023-03-21T09:20:37.329Z,101339.17
2023-03-21T09:23:06.647Z,101339.21
2023-03-21T09:25:36.864Z,101339.98
2023-03-21T09:28:07.410Z,101339.66
2023-03-21T09:30:37.939Z,101337.48
2023-03-21T09:33:09.010Z,101334.39
2023-03-21T09:35:39.232Z,101330.32
2023-03-21T09:38:09.134Z,101330.58
2023-03-21T09:40:56.551Z,101332.37
2023-03-21T09:43:41.414Z,101336.92
2023-03-21T09:46:16.513Z,101338.59
2023-03-21T09:48:57.000Z,101328.85
2023-03-21T09:51:23.680Z,101325.59
2023-03-21T09:53:57.039Z,101332.45
2023-03-21T09:56:26.526Z,101326.41
2023-03-21T09:58:59.787Z,101316.66
2023-03-21T10:01:34.673Z,101323.77
2023-03-21T10:04:06.733Z,101327.69
2023-03-21T10:06:39.665Z,101311.02
2023-03-21T10:09:24.980Z,101314.84
2023-03-21T10:11:57.382Z,101307.34
2023-03-21T10:14:36.335Z,101310.88
2023-03-21T10:17:21.484Z,101308.84
2023-03-21T10:19:54.596Z,101312.25
2023-03-21T10:22:23.826Z,101312.59
2023-03-21T10:24:53.192Z,101311.01
2023-03-21T10:27:22.439Z,101314.31
2023-03-21T10:29:53.386Z,101312.86
2023-03-21T10:32:22.906Z,101307.53
2023-03-21T10:37:26.888Z,101305.16
2023-03-21T10:39:58.187Z,101303.64
2023-03-21T10:42:31.430Z,101314.66
2023-03-21T10:45:01.285Z,101313.81
2023-03-21T10:47:35.160Z,101320.34
2023-03-21T10:50:09.341Z,101308.80
2023-03-21T10:52:41.223Z,101295.83
2023-03-21T10:55:13.938Z,101299.63
2023-03-21T10:57:43.235Z,101301.30
2023-03-21T11:00:17.064Z,101299.13
2023-03-21T11:02:49.583Z,101293.73
2023-03-21T11:05:20.876Z,101294.07
2023-03-21T11:07:59.711Z,101293.31
2023-03-21T11:10:32.721Z,101286.91
2023-03-21T11:13:11.106Z,101282.94
2023-03-21T11:15:52.125Z,101277.23
2023-03-21T11:18:24.117Z,101285.78
2023-03-21T11:21:02.555Z,101290.67
2023-03-21T11:23:34.230Z,101295.95
2023-03-21T11:26:05.488Z,101293.13
2023-03-21T11:28:42.246Z,101298.92
2023-03-21T11:31:12.183Z,101286.13
2023-03-21T11:33:45.384Z,101299.92
2023-03-21T11:36:24.204Z,101295.91
2023-03-21T11:39:13.912Z,101292.44
2023-03-21T11:41:44.030Z,101279.81
2023-03-21T11:44:31.145Z,101281.67
2023-03-21T11:47:01.116Z,101287.89
2023-03-21T11:49:30.942Z,101293.95
2023-03-21T11:52:06.649Z,101282.98
2023-03-21T11:54:39.147Z,101287.69
2023-03-21T11:57:23.778Z,101285.70
2023-03-21T12:00:01.952Z,101281.53
2023-03-21T12:03:02.891Z,101282.11
2023-03-21T12:05:44.452Z,101288.19
2023-03-21T12:08:52.220Z,101282.06
2023-03-21T12:11:42.457Z,101283.25
2023-03-21T12:14:23.778Z,101270.24
2023-03-21T12:17:13.231Z,101272.52
2023-03-21T12:20:04.230Z,101258.11
2023-03-21T12:22:39.620Z,101254.70
2023-03-21T12:25:33.408Z,101252.20
2023-03-21T12:28:08.703Z,101254.39
2023-03-21T12:31:00.868Z,101265.88
2023-03-21T12:33:45.176Z,101262.91
2023-03-21T12:36:23.325Z,101257.94
2023-03-21T12:39:19.932Z,101257.11
2023-03-21T12:41:52.914Z,101252.00
2023-03-21T12:44:23.607Z,101245.59
2023-03-21T12:47:05.034Z,101238.45
2023-03-21T12:49:40.390Z,101236.69
2023-03-21T12:52:15.652Z,101246.19
2023-03-21T12:54:59.966Z,101237.92
2023-03-21T12:57:32.649Z,101233.48
2023-03-21T13:00:12.434Z,101233.39
2023-03-21T13:03:05.273Z,101230.94
2023-03-21T13:05:53.193Z,101221.92
2023-03-21T13:08:31.714Z,101219.32
2023-03-21T13:11:02.384Z,101218.59
2023-03-21T13:13:37.537Z,101216.19
2023-03-21T13:16:10.010Z,101212.26
2023-03-21T13:19:14.687Z,101209.84
2023-03-21T13:21:50.014Z,101200.38
2023-03-21T13:24:28.641Z,101210.64
2023-03-21T13:27:04.270Z,101204.53
2023-03-21T13:29:53.374Z,101195.84
2023-03-21T13:32:40.064Z,101187.05
2023-03-21T13:35:29.010Z,101184.78
2023-03-21T13:38:09.218Z,101185.97
2023-03-21T13:40:53.079Z,101182.07
2023-03-21T13:43:36.852Z,101195.27
2023-03-21T13:46:14.918Z,101187.89
2023-03-21T13:49:01.012Z,101192.27
2023-03-21T13:51:39.606Z,101190.18
2023-03-21T13:54:17.978Z,101186.92
2023-03-21T13:56:52.945Z,101177.86
2023-03-21T13:59:40.835Z,101175.81
2023-03-21T14:02:25.197Z,101171.34
2023-03-21T14:05:05.444Z,101176.32
2023-03-21T14:07:31.166Z,101175.36
2023-03-21T14:10:09.901Z,101175.79
2023-03-21T14:12:41.839Z,101168.16
2023-03-21T14:15:22.856Z,101167.61
2023-03-21T14:18:06.430Z,101158.87
2023-03-21T14:20:36.517Z,101163.73
2023-03-21T14:23:11.899Z,101157.23
2023-03-21T14:25:47.599Z,101161.20
2023-03-21T14:28:19.785Z,101168.25
2023-03-21T14:30:55.188Z,101161.83
2023-03-21T14:33:33.234Z,101156.83
2023-03-21T14:36:06.473Z,101162.14
2023-03-21T14:38:38.032Z,101164.23
2023-03-21T14:41:09.498Z,101162.48
2023-03-21T14:43:39.376Z,101160.03
2023-03-21T14:46:10.337Z,101167.68
2023-03-21T14:48:40.143Z,101167.52
2023-03-21T14:51:12.275Z,101158.82
2023-03-21T14:53:43.062Z,101161.83
2023-03-21T14:56:21.296Z,101160.51
2023-03-21T14:58:51.263Z,101151.33
2023-03-21T15:01:29.724Z,101156.63
2023-03-21T15:04:00.767Z,101148.13
2023-03-21T15:06:30.001Z,101146.53
2023-03-21T15:09:02.324Z,101147.60
2023-03-21T15:11:37.475Z,101143.55
2023-03-21T15:14:09.038Z,101143.35
2023-03-21T15:16:39.192Z,101138.12
2023-03-21T15:19:09.614Z,101127.83
2023-03-21T15:21:44.246Z,101134.72
2023-03-21T15:24:25.757Z,101125.69
2023-03-21T15:27:01.341Z,101137.44
2023-03-21T15:29:31.136Z,101136.06
2023-03-21T15:32:01.434Z,101145.87
2023-03-21T15:34:31.736Z,101145.16
2023-03-21T15:37:06.285Z,101143.06
2023-03-21T15:39:36.493Z,101147.16
2023-03-21T15:42:08.990Z,101148.28
2023-03-21T15:44:38.283Z,101152.95
2023-03-21T15:47:09.594Z,101156.91
2023-03-21T15:49:42.702Z,101157.05
2023-03-21T15:52:16.818Z,101160.47
2023-03-21T15:54:56.700Z,101169.69
2023-03-21T15:57:32.576Z,101169.89
2023-03-21T16:00:18.475Z,101191.62
2023-03-21T16:02:47.176Z,101185.38
2023-03-21T16:05:31.471Z,101183.52
2023-03-21T16:08:20.771Z,101182.09
2023-03-21T16:10:50.182Z,101172.52
2023-03-21T16:13:19.566Z,101181.39
2023-03-21T16:15:48.836Z,101178.63
2023-03-21T16:18:18.068Z,101179.07
2023-03-21T16:20:49.086Z,101178.63
2023-03-21T16:23:18.351Z,101174.76
2023-03-21T16:25:47.631Z,101168.12
2023-03-21T16:28:18.487Z,101163.98
2023-03-21T16:30:47.766Z,101167.93
2023-03-21T16:33:17.338Z,101166.50
2023-03-21T16:35:46.897Z,101156.08
2023-03-21T16:38:16.282Z,101159.91
2023-03-21T16:40:45.943Z,101166.23
2023-03-21T16:43:15.611Z,101161.95
2023-03-21T16:45:45.463Z,101154.50
2023-03-21T16:48:16.974Z,101156.23
2023-03-21T16:50:49.671Z,101154.11
2023-03-21T16:53:18.600Z,101152.58
2023-03-21T16:55:48.102Z,101152.49
2023-03-21T16:58:17.419Z,101156.20
2023-03-21T17:00:47.296Z,101153.73
2023-03-21T17:03:21.589Z,101156.52
2023-03-21T17:05:51.089Z,101149.95
2023-03-21T17:08:21.845Z,101147.80
2023-03-21T17:10:51.332Z,101144.82
2023-03-21T17:13:20.630Z,101127.69
2023-03-21T17:15:49.996Z,101141.55
2023-03-21T17:18:19.209Z,101139.64
2023-03-21T17:20:48.478Z,101135.34
2023-03-21T17:23:17.686Z,101140.70
2023-03-21T17:25:47.263Z,101146.95
2023-03-21T17:28:16.527Z,101147.45
2023-03-21T17:30:46.109Z,101145.50
2023-03-21T17:33:15.720Z,101145.67
2023-03-21T17:35:45.383Z,101130.91
2023-03-21T17:38:17.135Z,101129.59
2023-03-21T17:40:46.554Z,101142.66
2023-03-21T17:43:21.016Z,101137.52
2023-03-21T17:45:50.436Z,101143.39
2023-03-21T17:48:21.917Z,101143.27
2023-03-21T17:50:51.230Z,101136.77
2023-03-21T17:53:22.378Z,101137.06
2023-03-21T17:55:51.638Z,101143.77
2023-03-21T17:58:21.355Z,101148.49
2023-03-21T18:00:50.845Z,101141.17
2023-03-21T18:03:20.352Z,101146.33
2023-03-21T18:05:49.583Z,101148.40
2023-03-21T18:08:19.258Z,101144.45
2023-03-21T18:10:49.021Z,101142.41
2023-03-21T18:13:18.920Z,101139.09
2023-03-21T18:15:49.887Z,101133.31
2023-03-21T18:18:19.457Z,101135.60
2023-03-21T18:20:52.638Z,101142.91
2023-03-21T18:23:21.160Z,101142.03
2023-03-21T18:25:53.003Z,101142.16
2023-03-21T18:28:22.738Z,101142.44
2023-03-21T18:31:08.238Z,101144.26
2023-03-21T18:33:24.740Z,101153.10
2023-03-21T18:35:59.013Z,101152.28
2023-03-21T18:38:25.598Z,101154.80
2023-03-21T18:40:55.220Z,101153.73
2023-03-21T18:45:56.579Z,101148.14
2023-03-21T18:48:26.269Z,101145.27
2023-03-21T18:50:56.038Z,101143.75
2023-03-21T18:53:25.573Z,101136.57
2023-03-21T18:55:55.585Z,101139.34
2023-03-21T18:58:25.496Z,101137.05
2023-03-21T19:00:55.303Z,101138.13
2023-03-21T19:03:35.725Z,101138.36
2023-03-21T19:06:00.511Z,101139.21
2023-03-21T19:08:30.652Z,101136.95
2023-03-21T19:11:05.562Z,101145.30
2023-03-21T19:13:31.248Z,101146.03
2023-03-21T19:16:02.749Z,101147.47
2023-03-21T19:18:53.527Z,101146.86
2023-03-21T19:21:06.334Z,101148.89
2023-03-21T19:24:11.648Z,101154.75
2023-03-21T19:26:07.873Z,101155.71
2023-03-21T19:28:37.434Z,101152.23
2023-03-21T19:31:08.037Z,101150.33
2023-03-21T19:33:37.880Z,101151.87
2023-03-21T19:36:17.985Z,101145.54
2023-03-21T19:38:39.152Z,101146.98
2023-03-21T19:41:08.448Z,101144.36
2023-03-21T19:43:40.131Z,101141.00
2023-03-21T19:46:11.324Z,101137.52
2023-03-21T19:48:43.523Z,101139.20
2023-03-21T19:51:27.479Z,101131.43
2023-03-21T19:53:44.391Z,101130.37
2023-03-21T19:56:21.652Z,101131.55
2023-03-21T19:58:47.245Z,101129.05
2023-03-21T20:01:16.824Z,101129.39
2023-03-21T20:03:46.563Z,101121.14
2023-03-21T20:06:16.722Z,101123.78
2023-03-21T20:11:17.989Z,101128.66
2023-03-21T20:13:49.518Z,101119.20
2023-03-21T20:16:20.429Z,101111.55
2023-03-21T20:18:50.299Z,101121.02
2023-03-21T20:21:25.345Z,101107.70
2023-03-21T20:23:51.148Z,101110.94
2023-03-21T20:26:21.389Z,101115.00
2023-03-21T20:29:00.272Z,101112.60
2023-03-21T20:31:24.202Z,101111.06
2023-03-21T20:33:53.675Z,101112.39
2023-03-21T20:36:38.821Z,101104.85
2023-03-21T20:38:55.399Z,101101.41
2023-03-21T20:41:24.929Z,101104.28
2023-03-21T20:46:25.270Z,101096.48
2023-03-21T20:48:54.934Z,101097.45
2023-03-21T20:53:56.706Z,101096.34
2023-03-21T20:56:25.946Z,101095.02
2023-03-21T20:59:08.557Z,101094.73
2023-03-21T21:01:26.801Z,101102.91
2023-03-21T21:03:57.525Z,101100.28
2023-03-21T21:06:28.632Z,101102.55
2023-03-21T21:08:59.721Z,101101.70
2023-03-21T21:14:00.100Z,101094.20
2023-03-21T21:16:29.400Z,101090.14
2023-03-21T21:18:59.405Z,101089.00
2023-03-21T21:21:28.881Z,101094.00
2023-03-21T21:23:58.502Z,101091.25
2023-03-21T21:26:28.203Z,101088.27
2023-03-21T21:28:59.037Z,101090.78
2023-03-21T21:31:33.069Z,101089.16
2023-03-21T21:34:04.010Z,101098.12
2023-03-21T21:36:33.553Z,101093.24
2023-03-21T21:39:02.754Z,101092.09
2023-03-21T21:41:32.279Z,101086.69
2023-03-21T21:44:01.620Z,101081.81
2023-03-21T21:46:31.683Z,101072.97
2023-03-21T21:49:02.030Z,101077.64
2023-03-21T21:51:33.251Z,101078.05
2023-03-21T21:54:06.438Z,101068.01
2023-03-21T21:56:38.716Z,101073.59
2023-03-21T21:59:11.273Z,101068.45
2023-03-21T22:01:43.512Z,101067.48
2023-03-21T22:04:14.896Z,101064.36
2023-03-21T22:06:48.084Z,101069.11
2023-03-21T22:09:24.733Z,101063.23
2023-03-21T22:11:57.209Z,101067.53
2023-03-21T22:14:33.267Z,101062.34
2023-03-21T22:17:03.777Z,101059.37
2023-03-21T22:19:40.200Z,101056.58
2023-03-21T22:22:12.774Z,101059.30
2023-03-21T22:24:42.484Z,101062.97
2023-03-21T22:27:11.836Z,101059.53
2023-03-21T22:29:41.227Z,101058.78
2023-03-21T22:32:10.959Z,101059.48
2023-03-21T22:34:40.266Z,101051.16
2023-03-21T22:37:09.602Z,101050.00
2023-03-21T22:39:39.104Z,101049.44
2023-03-21T22:42:08.523Z,101047.84
2023-03-21T22:44:37.793Z,101040.23
2023-03-21T22:47:09.292Z,101040.58
2023-03-21T22:49:39.342Z,101039.34
2023-03-21T22:52:09.296Z,101035.41
2023-03-21T22:54:38.848Z,101033.27
2023-03-21T22:57:08.959Z,101032.09
2023-03-21T22:59:38.532Z,101028.41
2023-03-21T23:02:09.742Z,101029.58
2023-03-21T23:04:39.550Z,101027.91
2023-03-21T23:07:10.024Z,101035.00
2023-03-21T23:09:39.693Z,101027.97
2023-03-21T23:12:09.023Z,101026.77
2023-03-21T23:14:38.548Z,101023.45
2023-03-21T23:17:09.459Z,101017.41
2023-03-21T23:19:41.097Z,101012.12
2023-03-21T23:22:11.236Z,101017.11
2023-03-21T23:24:41.053Z,101020.08
2023-03-21T23:27:10.669Z,101013.75
2023-03-21T23:29:40.161Z,101012.05
2023-03-21T23:32:09.387Z,101013.24
2023-03-21T23:34:38.631Z,101017.41
2023-03-21T23:37:08.195Z,101013.64
2023-03-21T23:39:37.984Z,101006.14
2023-03-21T23:42:07.499Z,101008.88
2023-03-21T23:44:37.061Z,100999.95
2023-03-21T23:47:06.365Z,101004.05
2023-03-21T23:49:37.234Z,101001.06
2023-03-21T23:52:06.898Z,100999.87
2023-03-21T23:54:36.496Z,100999.63
2023-03-21T23:57:05.764Z,100993.53
2023-03-21T23:59:35.272Z,100986.37
